Impacts TAF Board
For situational awareness. Not to be used for flight planning purposes.
IDs:

KGTR - Golden Triangle Arpt, MS, US

Issued at 0649 UTC 24 Jan 2019
Updated at 0703 UTC 24 Jan 2019
Potential Impact None Slight Moderate High
Time0656Z 24/08Z 24/09Z 24/10Z 24/11Z 24/12Z 24/13Z 24/14Z 24/15Z 24/16Z 24/17Z 24/18Z 24/19Z 24/20Z>>
Type OBS PRVL PRVL PRVL PRVL PRVL PRVL PRVL PRVL PRVL PRVL PRVL PRVL PRVL
VIS 10 >6 >6 >6 >6 >6 >6 >6 >6 >6 >6 >6 >6 >6
CIG 14 12 12 12 12 12 -- -- -- -- -- -- -- --
Cover OVC OVC OVC OVC OVC OVC SKC SKC SKC SKC SKC SKC SKC SKC
FltCat MVFR MVFR MVFR MVFR MVFR MVFR VFR VFR VFR VFR VFR VFR VFR VFR
WX -- -- -- -- -- -- -- -- -- -- -- -- -- --
WDir 290 310 310 310 310 310 320 320 320 320 320 320 320 320
WSpd 12 12 12 12 12 12 7 7 7 7 7 7 7 7
WGst 18 19 19 19 19 19 -- -- -- -- -- -- -- --
Raw TAF
KGTR 240649Z 2407/2506 31012G19KT P6SM OVC012
  FM241300 32007KT P6SM SKC
  FM250300 30005KT P6SM FEW100 BKN250


Raw METAR
KGTR 240656Z AUTO 29012G18KT 10SM OVC014 01/M02 A2998 RMK AO2 SLP153 P0003 T00061017 FZRANO
KGTR 240556Z AUTO 30014G19KT 10SM OVC012 01/M01 A2997 RMK AO2 SLP151 P0003 60023 T00111006 10067 20011 401440011 51020 FZRANO
KGTR 240511Z AUTO 29009KT 10SM BKN010 OVC014 02/00 A2996 RMK AO2 CIG 007V011 P0001 FZRANO
KGTR 240456Z AUTO 30015G18KT 10SM OVC008 02/01 A2995 RMK AO2 CIG 006V010 SLP146 P0004 T00170006 FZRANO
KGTR 240434Z AUTO 31011KT 9SM OVC008 02/01 A2993 RMK AO2 CIG 006V011 P0003 FZRANO

METAR Board
Radar Display
Forecast Discussion
For situational awareness. Not to be used for flight planning purposes.